Time;durP1;ratioP1;P1;durP2;ratioP2;P2;SDS_P1;SDS_P2;PMS_P1;PMS_P2;Temp;Humidity;BMP_temperature;BMP_pressure;BME280_temperature;BME280_humidity;BME280_pressure;Samples;Min_cycle;Max_cycle;Signal;HPM_P1;HPM_P2
2021/11/19 00:01:55;;;;;;;10.43;4.50;;;12.20;99.90;;;;;;5016254;28;20045;-86
2021/11/19 00:04:25;;;;;;;10.75;5.03;;;12.20;99.90;;;;;;5013027;28;20049;-83
2021/11/19 00:06:57;;;;;;;7.90;5.00;;;12.20;99.90;;;;;;5033754;28;20056;-84
2021/11/19 00:09:25;;;;;;;9.55;5.57;;;12.20;99.90;;;;;;5034735;28;20049;-85
2021/11/19 00:11:54;;;;;;;15.65;6.40;;;12.20;99.90;;;;;;5031102;28;20041;-84
2021/11/19 00:14:24;;;;;;;14.68;6.25;;;12.20;99.90;;;;;;5012533;28;20061;-85
2021/11/19 00:17:03;;;;;;;14.38;6.20;;;12.20;99.90;;;;;;5013353;28;20045;-84
2021/11/19 00:19:41;;;;;;;13.38;6.22;;;12.30;99.90;;;;;;4999649;28;20045;-83
2021/11/19 00:22:12;;;;;;;14.85;6.28;;;12.30;99.90;;;;;;5019742;28;20037;-84
2021/11/19 00:24:40;;;;;;;;;;;12.20;99.90;;;;;;5017067;28;20041;-86
2021/11/19 00:27:10;;;;;;;11.48;6.35;;;12.20;99.90;;;;;;4999136;28;20474;-84
2021/11/19 00:29:39;;;;;;;11.77;5.83;;;12.20;99.90;;;;;;4679689;28;10000295;-86
2021/11/19 00:32:10;;;;;;;10.52;5.47;;;12.20;99.90;;;;;;4999855;28;20061;-86
2021/11/19 00:34:39;;;;;;;16.50;7.78;;;12.10;99.90;;;;;;5014615;28;20609;-84
2021/11/19 00:37:08;;;;;;;11.40;5.28;;;12.10;99.90;;;;;;5000317;28;20053;-85
2021/11/19 00:39:36;;;;;;;14.70;6.53;;;12.10;99.90;;;;;;5028601;28;20080;-85
2021/11/19 00:42:07;;;;;;;14.40;5.68;;;12.10;99.90;;;;;;5018263;28;20053;-84
2021/11/19 00:44:48;;;;;;;10.73;5.70;;;12.10;99.90;;;;;;5006080;28;20053;-85
2021/11/19 00:47:16;;;;;;;12.70;5.80;;;12.10;99.90;;;;;;5005007;28;20048;-85
2021/11/19 00:49:45;;;;;;;16.95;6.82;;;12.10;99.90;;;;;;5038678;28;20068;-86
2021/11/19 00:52:16;;;;;;;17.52;5.85;;;12.10;99.90;;;;;;5036235;28;20080;-85
2021/11/19 00:54:44;;;;;;;12.47;6.27;;;12.10;99.90;;;;;;5023311;28;20044;-85
2021/11/19 00:57:16;;;;;;;12.98;6.53;;;12.10;99.90;;;;;;5005486;28;20057;-86
2021/11/19 00:59:44;;;;;;;16.02;6.07;;;12.10;99.90;;;;;;5005513;28;20045;-84
2021/11/19 01:02:19;;;;;;;;;;;12.10;99.90;;;;;;5013669;28;20053;-84
2021/11/19 01:04:52;;;;;;;14.82;5.80;;;12.00;99.90;;;;;;5019958;28;19924;-85
2021/11/19 01:07:23;;;;;;;13.18;6.40;;;12.00;99.90;;;;;;5038151;28;20491;-85
2021/11/19 01:09:58;;;;;;;13.15;6.10;;;12.00;99.90;;;;;;5020552;28;20049;-88
2021/11/19 01:12:31;;;;;;;16.25;8.73;;;12.00;99.90;;;;;;5017578;28;20048;-85
2021/11/19 01:15:04;;;;;;;13.60;6.30;;;12.00;99.90;;;;;;5017258;28;20049;-85
2021/11/19 01:17:37;;;;;;;15.70;6.60;;;11.90;99.90;;;;;;4989641;28;20072;-84
2021/11/19 01:20:13;;;;;;;15.55;6.63;;;11.90;99.90;;;;;;5003394;28;20061;-85
2021/11/19 01:22:49;;;;;;;14.77;6.85;;;11.80;99.90;;;;;;4988192;28;20722;-83
2021/11/19 01:25:24;;;;;;;15.57;6.95;;;11.80;99.90;;;;;;5003944;28;20074;-86
2021/11/19 01:27:53;;;;;;;17.55;7.10;;;11.80;99.90;;;;;;5025670;28;20056;-85
2021/11/19 01:30:29;;;;;;;23.20;7.95;;;11.80;99.90;;;;;;5036503;28;20053;-85
2021/11/19 01:32:58;;;;;;;12.73;6.50;;;11.80;99.90;;;;;;5018880;28;20056;-84
2021/11/19 01:35:41;;;;;;;15.88;8.45;;;11.80;99.90;;;;;;5019487;28;20138;-85
2021/11/19 01:38:25;;;;;;;18.38;5.75;;;11.80;99.90;;;;;;5035493;28;20705;-84
2021/11/19 01:41:33;;;;;;;13.70;5.85;;;11.80;99.90;;;;;;5018297;28;20237;-84
2021/11/19 01:44:30;;;;;;;14.63;5.95;;;11.80;99.90;;;;;;5036247;28;20041;-85
2021/11/19 01:47:01;;;;;;;14.57;7.57;;;11.90;99.90;;;;;;5016254;28;20379;-85
2021/11/19 01:49:33;;;;;;;15.20;6.63;;;11.80;99.90;;;;;;5003053;28;20060;-83
2021/11/19 01:52:09;;;;;;;16.48;5.93;;;11.80;99.90;;;;;;5020513;28;20049;-85
2021/11/19 01:54:59;;;;;;;14.82;6.32;;;11.70;99.90;;;;;;5018371;28;20494;-85
2021/11/19 01:57:44;;;;;;;13.80;7.18;;;11.70;99.90;;;;;;5024153;28;20060;-85
2021/11/19 02:00:17;;;;;;;16.65;7.30;;;11.70;99.90;;;;;;5007705;28;20053;-84
2021/11/19 02:02:50;;;;;;;15.63;7.65;;;11.70;99.90;;;;;;5022839;28;20041;-85
2021/11/19 02:05:33;;;;;;;16.17;7.53;;;11.70;99.90;;;;;;5003195;28;20089;-85
2021/11/19 02:08:11;;;;;;;19.65;7.70;;;11.70;99.90;;;;;;5015526;28;20041;-84
2021/11/19 02:10:47;;;;;;;18.50;8.07;;;11.70;99.90;;;;;;5012508;28;20049;-84
2021/11/19 02:13:53;;;;;;;17.15;9.40;;;11.70;99.90;;;;;;5012105;28;20061;-84
2021/11/19 02:16:29;;;;;;;15.90;7.72;;;11.70;99.90;;;;;;5006550;28;20858;-85
2021/11/19 02:19:15;;;;;;;18.60;8.23;;;11.70;99.90;;;;;;5012313;28;20056;-85
2021/11/19 02:22:03;;;;;;;15.30;6.78;;;11.90;99.90;;;;;;5028596;28;20060;-86
2021/11/19 02:24:37;;;;;;;18.02;7.75;;;11.70;99.90;;;;;;5015315;28;20053;-86
2021/11/19 02:27:21;;;;;;;18.58;8.50;;;11.60;99.90;;;;;;5012554;28;20065;-84
2021/11/19 02:30:04;;;;;;;17.80;8.25;;;11.60;99.90;;;;;;4979399;28;20049;-84
2021/11/19 02:32:45;;;;;;;18.30;7.63;;;11.60;99.90;;;;;;5012977;28;20049;-83
2021/11/19 02:35:23;;;;;;;18.90;8.85;;;11.60;99.90;;;;;;5011238;28;20045;-84
2021/11/19 02:38:03;;;;;;;14.25;7.03;;;11.60;99.90;;;;;;5030597;28;20044;-84
2021/11/19 02:40:35;;;;;;;21.92;9.75;;;11.70;99.90;;;;;;5012051;28;20064;-84
2021/11/19 02:43:17;;;;;;;14.38;6.45;;;11.70;99.90;;;;;;5013196;28;20045;-85
2021/11/19 02:45:48;;;;;;;17.13;8.55;;;11.70;99.90;;;;;;4995602;28;20049;-85
2021/11/19 02:48:23;;;;;;;18.67;7.07;;;11.70;99.90;;;;;;5015569;28;20045;-86
2021/11/19 02:51:08;;;;;;;22.67;9.07;;;11.70;99.90;;;;;;4997145;28;20045;-84
2021/11/19 02:53:40;;;;;;;15.65;6.88;;;11.70;99.90;;;;;;4996436;28;20353;-84
2021/11/19 02:56:14;;;;;;;16.50;8.77;;;11.60;99.90;;;;;;4998829;28;20053;-84
2021/11/19 02:58:56;;;;;;;19.05;8.20;;;11.70;99.90;;;;;;5018749;28;20049;-84
2021/11/19 03:01:36;;;;;;;14.65;7.55;;;11.70;99.90;;;;;;5003121;28;20045;-85
2021/11/19 03:04:04;;;;;;;22.35;10.25;;;11.70;99.90;;;;;;5019098;28;20037;-85
2021/11/19 03:06:35;;;;;;;19.15;8.65;;;11.70;99.90;;;;;;4984445;28;20070;-85
2021/11/19 03:09:06;;;;;;;22.30;9.52;;;11.60;99.90;;;;;;4958379;28;20063;-85
2021/11/19 03:11:35;;;;;;;17.35;8.48;;;11.60;99.90;;;;;;4990655;28;20490;-85
2021/11/19 03:14:05;;;;;;;21.15;9.00;;;11.60;99.90;;;;;;4971592;28;20050;-83
2021/11/19 03:16:34;;;;;;;19.00;9.25;;;11.60;99.90;;;;;;4990203;28;20054;-85
2021/11/19 03:19:04;;;;;;;22.35;9.50;;;11.70;99.90;;;;;;4991208;28;20050;-84
2021/11/19 03:21:35;;;;;;;19.80;8.88;;;11.60;99.90;;;;;;4976243;28;20435;-85
2021/11/19 03:24:05;;;;;;;18.95;8.18;;;11.60;99.90;;;;;;4990416;28;20054;-84
2021/11/19 03:26:38;;;;;;;19.63;8.55;;;11.60;99.90;;;;;;4990948;28;20050;-85
2021/11/19 03:29:08;;;;;;;19.10;9.82;;;11.60;99.90;;;;;;4988267;28;20426;-84
2021/11/19 03:31:38;;;;;;;19.70;8.38;;;11.60;99.90;;;;;;4985485;28;20051;-85
2021/11/19 03:34:12;;;;;;;16.15;8.45;;;11.60;99.90;;;;;;4958623;28;20050;-84
2021/11/19 03:36:44;;;;;;;22.30;10.00;;;11.60;99.90;;;;;;4989497;28;20042;-86
2021/11/19 03:39:13;;;;;;;24.73;9.15;;;11.60;99.90;;;;;;4999471;28;20554;-84
2021/11/19 03:41:44;;;;;;;18.45;9.18;;;11.60;99.90;;;;;;4990942;28;20054;-85
2021/11/19 03:44:22;;;;;;;21.95;9.15;;;11.60;99.90;;;;;;4994755;28;20049;-84
2021/11/19 03:46:56;;;;;;;21.98;10.20;;;11.60;99.90;;;;;;4984034;28;20046;-84
2021/11/19 03:49:25;;;;;;;23.33;8.65;;;11.60;99.90;;;;;;4992871;28;20062;-85
2021/11/19 03:52:05;;;;;;;23.25;9.68;;;11.60;99.90;;;;;;4977323;28;20050;-83
2021/11/19 03:54:36;;;;;;;22.40;9.90;;;11.10;99.90;;;;;;4993401;28;20636;-85
2021/11/19 03:57:07;;;;;;;22.55;10.20;;;11.60;99.90;;;;;;4976003;28;20445;-85
2021/11/19 03:59:35;;;;;;;21.73;9.35;;;11.70;99.90;;;;;;4998388;28;20038;-84
2021/11/19 04:02:04;;;;;;;22.30;10.98;;;11.70;99.90;;;;;;4994705;28;20059;-85
2021/11/19 04:04:36;;;;;;;20.38;9.23;;;11.70;99.90;;;;;;4979276;28;20061;-84
2021/11/19 04:07:06;;;;;;;22.95;11.40;;;11.70;99.90;;;;;;5012416;28;20066;-85
2021/11/19 04:09:37;;;;;;;25.20;9.05;;;11.70;99.90;;;;;;4996837;28;20050;-84
2021/11/19 04:12:07;;;;;;;19.20;9.40;;;11.80;99.90;;;;;;4977521;28;20074;-86
2021/11/19 04:14:36;;;;;;;18.98;9.18;;;11.80;99.90;;;;;;4984414;28;20070;-84
2021/11/19 04:17:04;;;;;;;19.25;8.93;;;11.80;99.90;;;;;;4997442;28;20510;-85
2021/11/19 04:19:33;;;;;;;18.73;8.60;;;11.80;99.90;;;;;;4996948;28;20545;-84
2021/11/19 04:22:06;;;;;;;20.27;7.45;;;11.90;99.90;;;;;;4991996;28;20554;-85
2021/11/19 04:24:47;;;;;;;19.83;8.57;;;11.90;99.90;;;;;;4991180;28;20045;-85
2021/11/19 04:27:16;;;;;;;20.08;9.15;;;11.90;99.90;;;;;;4962791;28;20061;-84
2021/11/19 04:30:00;;;;;;;22.85;10.70;;;11.90;99.90;;;;;;4992141;28;20058;-85
2021/11/19 04:32:31;;;;;;;22.27;9.38;;;12.00;99.90;;;;;;4995600;28;20437;-84
2021/11/19 04:34:59;;;;;;;20.75;9.02;;;11.90;99.90;;;;;;5008641;28;20042;-84
2021/11/19 04:37:28;;;;;;;21.33;10.75;;;11.90;99.90;;;;;;4990603;28;20050;-85
2021/11/19 04:39:59;;;;;;;18.67;8.48;;;11.90;99.90;;;;;;4988789;28;20055;-84
2021/11/19 04:42:27;;;;;;;17.85;8.73;;;11.90;99.90;;;;;;5002475;28;20054;-86
2021/11/19 04:44:55;;;;;;;17.27;7.43;;;11.90;99.90;;;;;;5005310;28;20049;-85
2021/11/19 04:47:28;;;;;;;18.52;8.38;;;11.90;99.90;;;;;;4999943;28;20061;-84
2021/11/19 04:49:56;;;;;;;18.60;7.68;;;11.90;99.90;;;;;;5001482;28;20047;-84
2021/11/19 04:52:26;;;;;;;19.83;8.23;;;11.90;99.90;;;;;;4979975;28;20497;-86
2021/11/19 04:54:54;;;;;;;19.90;8.55;;;11.90;99.90;;;;;;4977241;28;20057;-84
2021/11/19 04:57:22;;;;;;;16.92;7.82;;;11.90;99.90;;;;;;4977042;28;20409;-85
2021/11/19 04:59:50;;;;;;;19.50;9.15;;;11.90;99.90;;;;;;4992816;28;20051;-87
2021/11/19 05:02:21;;;;;;;17.17;7.80;;;11.90;99.90;;;;;;4977153;28;20038;-84
2021/11/19 05:05:00;;;;;;;17.90;7.82;;;10.50;99.90;;;;;;4995974;28;20048;-85
2021/11/19 05:07:29;;;;;;;20.63;8.98;;;12.00;99.90;;;;;;4980421;28;20051;-86
2021/11/19 05:09:57;;;;;;;18.35;8.93;;;12.00;99.90;;;;;;4999858;28;20046;-85
2021/11/19 05:12:33;;;;;;;16.95;7.32;;;12.00;99.90;;;;;;4998266;28;20058;-84
2021/11/19 05:15:05;;;;;;;18.60;9.15;;;12.00;99.90;;;;;;4995805;28;20401;-86
2021/11/19 05:17:33;;;;;;;17.98;8.23;;;12.00;99.90;;;;;;4972339;28;20058;-84
2021/11/19 05:20:07;;;;;;;21.23;7.90;;;12.00;99.90;;;;;;4957665;28;20061;-86
2021/11/19 05:22:35;;;;;;;18.75;7.25;;;12.00;99.90;;;;;;4988536;28;20308;-83
2021/11/19 05:25:06;;;;;;;19.25;8.70;;;12.00;99.90;;;;;;4974129;28;20038;-87
2021/11/19 05:27:34;;;;;;;22.10;10.00;;;12.00;99.90;;;;;;4990210;28;20066;-85
2021/11/19 05:30:06;;;;;;;16.40;8.45;;;12.00;99.90;;;;;;4991342;28;20054;-84
2021/11/19 05:32:47;;;;;;;16.95;7.93;;;12.00;99.90;;;;;;4650454;28;10000449;-85
2021/11/19 05:35:17;;;;;;;18.73;8.82;;;12.00;99.90;;;;;;4987445;28;20054;-85
2021/11/19 05:37:45;;;;;;;18.20;8.43;;;12.00;99.90;;;;;;4994529;28;20054;-86
2021/11/19 05:40:17;;;;;;;17.92;8.20;;;12.00;99.90;;;;;;4983024;28;20054;-86
2021/11/19 05:42:45;;;;;;;;;;;12.00;99.90;;;;;;4998421;28;20046;-86
2021/11/19 05:45:15;;;;;;;19.73;7.72;;;11.30;99.90;;;;;;4999271;28;19929;-86
2021/11/19 05:48:03;;;;;;;17.42;8.52;;;12.00;99.90;;;;;;4981481;28;20050;-88
2021/11/19 05:50:40;;;;;;;16.42;7.72;;;12.00;99.90;;;;;;5003672;28;20038;-89
2021/11/19 05:53:10;;;;;;;16.38;7.63;;;12.00;99.90;;;;;;5005838;28;20064;-86
2021/11/19 05:55:42;;;;;;;18.45;7.72;;;12.00;99.90;;;;;;4992077;28;20046;-88
2021/11/19 05:58:10;;;;;;;15.75;7.72;;;12.00;99.90;;;;;;5022443;28;20050;-89
2021/11/19 06:00:47;;;;;;;19.80;7.93;;;12.00;99.90;;;;;;5004968;28;20064;-86
2021/11/19 06:03:24;;;;;;;16.30;7.90;;;12.00;99.90;;;;;;4986336;28;20046;-86
2021/11/19 06:06:09;;;;;;;19.35;7.80;;;12.00;99.90;;;;;;4998685;28;20055;-84
2021/11/19 06:08:58;;;;;;;20.40;8.00;;;12.00;99.90;;;;;;4988803;28;20089;-84
2021/11/19 06:11:33;;;;;;;17.63;7.85;;;12.00;99.90;;;;;;5016342;28;20054;-88
2021/11/19 06:14:06;;;;;;;17.92;7.45;;;12.00;99.90;;;;;;5000879;28;20058;-84
2021/11/19 06:16:38;;;;;;;22.70;9.25;;;10.90;99.90;;;;;;5001347;28;20054;-84
2021/11/19 06:19:13;;;;;;;19.45;8.10;;;12.00;99.90;;;;;;4998143;28;20046;-84
2021/11/19 06:21:52;;;;;;;15.02;8.02;;;12.00;99.90;;;;;;5004881;28;20055;-85
2021/11/19 06:24:25;;;;;;;15.85;7.28;;;12.00;99.90;;;;;;5000151;28;20049;-89
2021/11/19 06:26:54;;;;;;;21.40;8.98;;;12.00;99.90;;;;;;5000769;28;20482;-86
2021/11/19 06:29:23;;;;;;;16.88;7.85;;;12.00;99.90;;;;;;5000275;28;20157;-90
2021/11/19 06:31:55;;;;;;;16.52;6.95;;;12.00;99.90;;;;;;4985645;28;20050;-88
2021/11/19 06:34:25;;;;;;;16.98;7.85;;;12.00;99.90;;;;;;4981668;28;20051;-86
2021/11/19 06:36:55;;;;;;;20.48;9.07;;;12.00;99.90;;;;;;5003180;28;20046;-89
2021/11/19 06:39:42;;;;;;;17.15;7.78;;;11.80;99.90;;;;;;4994117;28;20051;-86
2021/11/19 06:42:23;;;;;;;16.15;7.30;;;12.00;99.90;;;;;;4959891;28;20051;-85
2021/11/19 06:45:21;;;;;;;14.57;7.35;;;12.00;99.90;;;;;;4959844;28;20042;-85
2021/11/19 06:47:59;;;;;;;;;;;11.70;99.90;;;;;;4972498;28;20085;-85
2021/11/19 06:50:47;;;;;;;11.43;6.38;;;12.00;99.90;;;;;;4977043;28;20285;-83
2021/11/19 06:53:51;;;;;;;14.43;7.20;;;12.00;99.90;;;;;;4927342;29;20078;-85
2021/11/19 06:56:42;;;;;;;15.95;7.45;;;12.00;99.90;;;;;;4989694;28;20520;-86
2021/11/19 06:59:15;;;;;;;16.90;7.43;;;12.00;99.90;;;;;;4978505;28;20054;-85
2021/11/19 07:01:45;;;;;;;16.92;7.72;;;12.00;99.90;;;;;;4978872;28;20069;-85
2021/11/19 07:04:13;;;;;;;15.73;7.53;;;12.00;99.90;;;;;;4959132;28;20054;-86
2021/11/19 07:06:42;;;;;;;13.90;7.13;;;12.00;99.90;;;;;;4998115;28;20069;-86
2021/11/19 07:09:13;;;;;;;15.27;7.40;;;12.00;99.90;;;;;;5001269;28;20209;-84
2021/11/19 07:11:44;;;;;;;17.23;8.70;;;12.00;99.90;;;;;;5002191;28;20061;-86
2021/11/19 07:14:13;;;;;;;15.52;7.95;;;12.00;99.90;;;;;;5004537;28;20050;-86
2021/11/19 07:16:41;;;;;;;16.48;7.22;;;11.90;99.90;;;;;;4988778;28;20043;-86
2021/11/19 07:19:11;;;;;;;16.83;6.93;;;12.00;99.90;;;;;;5003059;28;20046;-84
2021/11/19 07:21:40;;;;;;;15.98;7.50;;;12.10;99.90;;;;;;4990742;28;20045;-89
2021/11/19 07:24:08;;;;;;;16.98;7.45;;;12.10;99.90;;;;;;5015409;28;20524;-87
2021/11/19 07:26:37;;;;;;;17.42;8.48;;;12.10;99.90;;;;;;4982180;28;20565;-89
2021/11/19 07:29:06;;;;;;;16.98;7.70;;;12.10;99.90;;;;;;5002146;28;20046;-86
2021/11/19 07:31:53;;;;;;;16.98;7.65;;;12.10;99.90;;;;;;5000375;28;20046;-87
2021/11/19 07:34:25;;;;;;;19.20;7.45;;;12.10;99.90;;;;;;4997642;28;20065;-86
2021/11/19 07:37:07;;;;;;;15.77;8.00;;;12.20;99.90;;;;;;4982169;28;20050;-89
2021/11/19 07:39:44;;;;;;;11.57;7.05;;;12.20;99.90;;;;;;4997268;28;20046;-86
2021/11/19 07:42:49;;;;;;;15.40;6.97;;;12.20;99.90;;;;;;4975369;28;20525;-86
2021/11/19 07:45:37;;;;;;;15.65;7.00;;;12.20;99.90;;;;;;4979034;28;20058;-84
2021/11/19 07:48:32;;;;;;;13.25;6.65;;;12.30;99.90;;;;;;5002368;28;20055;-84
2021/11/19 07:51:05;;;;;;;15.05;7.03;;;12.20;99.90;;;;;;4997875;28;20046;-87
2021/11/19 07:53:33;;;;;;;12.30;7.07;;;12.20;99.90;;;;;;5005781;28;20046;-85
2021/11/19 07:56:02;;;;;;;14.55;5.97;;;12.20;99.90;;;;;;5016701;28;20050;-87
2021/11/19 07:58:31;;;;;;;30.55;7.85;;;12.20;99.90;;;;;;4997826;28;20045;-87
2021/11/19 08:00:59;;;;;;;17.27;6.95;;;12.20;99.90;;;;;;4997316;28;20042;-84
2021/11/19 08:03:29;;;;;;;13.82;6.57;;;12.30;99.90;;;;;;4999350;28;20054;-87
2021/11/19 08:06:06;;;;;;;9.15;5.03;;;12.20;99.90;;;;;;4966382;28;20050;-86
2021/11/19 08:08:38;;;;;;;13.35;6.18;;;12.30;99.90;;;;;;4995293;28;20042;-87
2021/11/19 08:11:14;;;;;;;12.07;6.38;;;12.30;99.90;;;;;;5020217;28;20065;-88
2021/11/19 08:13:44;;;;;;;15.68;7.10;;;12.30;99.90;;;;;;4988190;28;20054;-83
2021/11/19 08:16:20;;;;;;;12.55;6.47;;;12.30;99.90;;;;;;5007037;28;20050;-85
2021/11/19 08:19:39;;;;;;;;;;;12.30;99.90;;;;;;4991499;28;20538;-88
2021/11/19 08:22:06;;;;;;;15.43;7.25;;;12.30;99.90;;;;;;4990509;28;20376;-85
2021/11/19 08:24:35;;;;;;;17.20;7.20;;;12.30;99.90;;;;;;4993564;28;20058;-85
2021/11/19 08:27:12;;;;;;;19.98;6.75;;;12.40;99.90;;;;;;4993464;28;20061;-85
2021/11/19 08:29:45;;;;;;;11.30;5.32;;;12.40;99.90;;;;;;4996020;28;20050;-83
2021/11/19 08:32:14;;;;;;;18.08;7.03;;;12.40;99.90;;;;;;4993214;28;20469;-86
2021/11/19 08:34:41;;;;;;;9.50;4.60;;;12.40;99.90;;;;;;4992449;28;20061;-82
2021/11/19 08:37:09;;;;;;;13.27;4.97;;;12.40;99.90;;;;;;5006651;28;20382;-86
2021/11/19 08:39:38;;;;;;;15.05;5.63;;;12.40;99.90;;;;;;4996542;28;20591;-88
2021/11/19 08:42:09;;;;;;;13.10;7.07;;;12.50;99.90;;;;;;5014148;28;20050;-87
2021/11/19 08:44:39;;;;;;;13.70;7.18;;;12.50;99.90;;;;;;4996872;28;20062;-83
2021/11/19 08:47:25;;;;;;;17.50;7.80;;;12.50;99.90;;;;;;5010243;28;20057;-84
2021/11/19 08:49:53;;;;;;;15.13;7.18;;;12.50;99.90;;;;;;4990637;28;20047;-86
2021/11/19 08:52:22;;;;;;;15.75;6.47;;;12.50;99.90;;;;;;4992425;28;20212;-88
2021/11/19 08:54:50;;;;;;;14.40;7.43;;;12.60;99.90;;;;;;4993741;28;20126;-86
2021/11/19 08:57:22;;;;;;;15.02;6.20;;;12.60;99.90;;;;;;4993288;28;20052;-87
2021/11/19 08:59:53;;;;;;;15.68;6.90;;;12.60;99.90;;;;;;5008877;28;20071;-85
2021/11/19 09:02:24;;;;;;;12.82;6.32;;;12.60;99.90;;;;;;4976670;28;20230;-83
2021/11/19 09:05:04;;;;;;;10.48;4.60;;;12.70;99.90;;;;;;4989193;28;20050;-84
2021/11/19 09:07:34;;;;;;;10.35;6.22;;;12.70;99.90;;;;;;5033782;28;20041;-85
2021/11/19 09:10:10;;;;;;;11.50;5.57;;;12.70;99.90;;;;;;5034007;28;20497;-86
2021/11/19 09:12:42;;;;;;;10.75;5.38;;;12.70;99.90;;;;;;5017367;28;20053;-85
2021/11/19 09:15:18;;;;;;;8.85;4.50;;;12.70;99.90;;;;;;5014497;28;20045;-84
2021/11/19 09:18:08;;;;;;;11.57;4.20;;;12.70;99.90;;;;;;5003501;28;20061;-84
2021/11/19 09:21:05;;;;;;;9.48;5.85;;;12.80;99.90;;;;;;5045950;28;20041;-86
2021/11/19 09:23:39;;;;;;;9.85;4.55;;;12.70;99.90;;;;;;5035881;28;20052;-84
2021/11/19 09:26:14;;;;;;;11.18;5.22;;;12.70;99.90;;;;;;5023417;28;20041;-84
2021/11/19 09:28:49;;;;;;;9.90;5.28;;;12.80;99.90;;;;;;5041434;28;20040;-84
2021/11/19 09:31:19;;;;;;;9.95;4.20;;;12.60;99.90;;;;;;5027877;28;20368;-83
2021/11/19 09:33:50;;;;;;;11.85;4.32;;;12.80;99.90;;;;;;5023825;28;20061;-84
2021/11/19 09:36:18;;;;;;;8.68;4.03;;;12.80;99.90;;;;;;5022227;28;20058;-82
2021/11/19 09:38:47;;;;;;;10.07;3.42;;;12.80;99.90;;;;;;5035735;28;20057;-85
2021/11/19 09:41:39;;;;;;;6.85;3.80;;;12.80;99.90;;;;;;5038369;28;20078;-82
2021/11/19 09:44:46;;;;;;;13.02;4.47;;;12.80;99.90;;;;;;5031046;28;20061;-84
2021/11/19 09:47:44;;;;;;;7.07;3.65;;;12.20;99.90;;;;;;5020029;28;20061;-85
2021/11/19 09:50:50;;;;;;;7.68;3.67;;;12.80;99.90;;;;;;5014959;28;20517;-86
2021/11/19 09:53:39;;;;;;;6.68;4.15;;;12.80;99.90;;;;;;5033861;28;20057;-85
2021/11/19 09:56:19;;;;;;;7.05;4.22;;;12.80;99.90;;;;;;5016152;28;20053;-85
2021/11/19 09:58:50;;;;;;;9.20;5.25;;;12.80;99.90;;;;;;5032364;28;20052;-87
2021/11/19 10:01:40;;;;;;;8.80;5.00;;;12.80;99.90;;;;;;4999406;28;20487;-87
2021/11/19 10:04:37;;;;;;;5.20;3.83;;;12.80;99.90;;;;;;5016467;28;20393;-85
2021/11/19 10:07:42;;;;;;;8.50;4.57;;;12.80;99.90;;;;;;5006140;28;20065;-86
2021/11/19 10:10:32;;;;;;;8.02;4.63;;;12.80;99.90;;;;;;5014876;28;20055;-86
2021/11/19 10:13:18;;;;;;;8.32;4.05;;;12.80;99.90;;;;;;5014010;28;20050;-84
2021/11/19 10:16:23;;;;;;;6.43;3.88;;;12.80;99.90;;;;;;5000095;28;20049;-86
2021/11/19 10:19:07;;;;;;;5.25;3.92;;;12.90;99.90;;;;;;5016184;28;20069;-86
2021/11/19 10:21:47;;;;;;;9.10;4.68;;;12.90;99.90;;;;;;5006056;28;20049;-87
2021/11/19 10:24:40;;;;;;;7.10;4.18;;;12.70;99.90;;;;;;5037019;28;20045;-85
2021/11/19 10:27:13;;;;;;;8.48;4.50;;;12.90;99.90;;;;;;5005205;28;20037;-83
2021/11/19 10:29:51;;;;;;;13.60;5.25;;;12.90;99.90;;;;;;5039644;28;20042;-83
2021/11/19 10:32:26;;;;;;;8.95;4.38;;;12.90;99.90;;;;;;5015994;28;20037;-84
2021/11/19 10:35:22;;;;;;;7.68;5.07;;;12.90;99.90;;;;;;4987232;28;20518;-83
2021/11/19 10:38:14;;;;;;;12.10;6.43;;;12.90;99.90;;;;;;4680679;28;10000303;-85
2021/11/19 10:41:04;;;;;;;6.47;4.10;;;12.90;99.90;;;;;;5027024;28;20042;-83
2021/11/19 10:43:59;;;;;;;8.45;4.97;;;12.90;99.90;;;;;;5030969;28;20057;-84
2021/11/19 10:46:55;;;;;;;7.75;4.78;;;12.90;99.90;;;;;;5031333;28;20169;-84
2021/11/19 10:49:50;;;;;;;6.68;4.43;;;12.90;99.90;;;;;;4994882;28;20045;-85
2021/11/19 10:52:45;;;;;;;11.63;4.20;;;12.90;99.90;;;;;;5029248;28;20056;-84
2021/11/19 10:55:32;;;;;;;9.43;5.25;;;12.90;99.90;;;;;;5009570;28;20056;-84
2021/11/19 10:58:19;;;;;;;6.80;3.70;;;13.00;99.90;;;;;;5025097;28;20489;-83
2021/11/19 11:00:58;;;;;;;6.97;3.78;;;13.00;99.90;;;;;;5013063;28;20048;-85
2021/11/19 11:03:37;;;;;;;6.03;3.58;;;13.00;99.90;;;;;;5028994;28;20041;-83
2021/11/19 11:06:45;;;;;;;6.90;2.63;;;13.00;99.90;;;;;;5009771;28;20053;-84
2021/11/19 11:09:56;;;;;;;5.50;3.33;;;13.00;99.90;;;;;;5011106;28;20744;-83
2021/11/19 11:12:52;;;;;;;6.25;3.33;;;12.90;99.90;;;;;;5011726;28;20065;-83
2021/11/19 11:16:35;;;;;;;5.03;2.92;;;13.00;99.90;;;;;;5032434;28;20061;-82
2021/11/19 11:19:30;;;;;;;5.10;3.22;;;13.00;99.90;;;;;;4987934;28;20065;-84
2021/11/19 11:22:21;;;;;;;4.43;2.63;;;13.40;99.90;;;;;;5012469;28;20062;-84
2021/11/19 11:25:05;;;;;;;10.98;5.45;;;13.10;99.90;;;;;;5010141;28;20050;-85
2021/11/19 11:27:57;;;;;;;5.53;3.47;;;13.20;99.90;;;;;;5011420;28;20541;-83
2021/11/19 11:30:59;;;;;;;9.65;3.50;;;13.20;99.90;;;;;;5011705;28;20060;-83
2021/11/19 11:34:01;;;;;;;7.05;2.53;;;13.10;99.90;;;;;;5009544;28;20054;-84
2021/11/19 11:36:44;;;;;;;4.25;2.45;;;13.30;99.90;;;;;;5007095;28;20050;-84
2021/11/19 11:39:38;;;;;;;6.72;3.28;;;13.80;99.90;;;;;;5010611;28;20073;-84
2021/11/19 11:42:30;;;;;;;6.03;3.17;;;13.10;99.90;;;;;;5027531;28;20046;-84
2021/11/19 11:45:21;;;;;;;6.60;3.97;;;13.30;99.90;;;;;;5010100;28;20042;-86
2021/11/19 11:48:14;;;;;;;12.23;4.43;;;13.10;99.90;;;;;;5009052;28;20042;-84
2021/11/19 11:51:07;;;;;;;6.78;3.70;;;13.10;99.90;;;;;;5011383;28;20057;-83
2021/11/19 11:54:05;;;;;;;7.85;4.22;;;13.10;99.90;;;;;;5014001;28;20054;-83
2021/11/19 11:56:40;;;;;;;11.05;4.72;;;13.10;99.90;;;;;;5034867;28;20042;-84
2021/11/19 11:59:11;;;;;;;12.00;6.47;;;13.10;99.90;;;;;;5021207;28;20033;-86
2021/11/19 12:01:50;;;;;;;13.52;5.40;;;13.10;99.90;;;;;;5018166;28;20064;-84
2021/11/19 12:04:35;;;;;;;13.77;5.22;;;13.10;99.90;;;;;;5006787;28;20050;-84
2021/11/19 12:07:19;;;;;;;9.80;5.25;;;13.60;99.90;;;;;;5007155;28;20400;-84
2021/11/19 12:09:56;;;;;;;10.45;4.70;;;13.10;99.90;;;;;;4970042;28;20058;-86
2021/11/19 12:12:36;;;;;;;14.43;5.50;;;12.60;99.90;;;;;;4985545;28;20039;-85
2021/11/19 12:15:33;;;;;;;10.27;4.85;;;13.10;99.90;;;;;;4981414;28;20042;-84
2021/11/19 12:18:37;;;;;;;11.50;5.07;;;13.10;99.90;;;;;;4947464;28;20445;-85
2021/11/19 12:21:08;;;;;;;8.77;4.55;;;13.10;99.90;;;;;;4986585;28;20054;-84
2021/11/19 12:24:12;;;;;;;14.30;5.03;;;13.00;99.90;;;;;;4982187;28;20314;-84
2021/11/19 12:27:03;;;;;;;11.07;5.03;;;13.10;99.90;;;;;;4983244;28;20057;-85
2021/11/19 12:29:52;;;;;;;8.15;4.50;;;13.10;99.90;;;;;;5001864;28;20042;-86
2021/11/19 12:32:36;;;;;;;8.75;4.60;;;13.10;99.90;;;;;;4983732;28;20406;-83
2021/11/19 12:35:23;;;;;;;7.65;4.03;;;13.10;99.90;;;;;;4984874;28;20042;-84
2021/11/19 12:38:04;;;;;;;7.63;3.95;;;13.10;99.90;;;;;;4980441;28;20061;-85
2021/11/19 12:40:51;;;;;;;9.57;3.97;;;13.10;99.90;;;;;;4979425;28;20047;-85
2021/11/19 12:43:46;;;;;;;6.75;3.83;;;13.10;99.90;;;;;;4967694;28;20038;-84
2021/11/19 12:46:43;;;;;;;10.65;4.07;;;13.10;99.90;;;;;;4999838;28;20054;-83
2021/11/19 12:49:57;;;;;;;7.93;4.00;;;13.10;99.90;;;;;;4981412;28;20042;-83
2021/11/19 12:52:33;;;;;;;7.50;3.28;;;13.10;99.90;;;;;;5000881;28;20524;-85
2021/11/19 12:55:16;;;;;;;6.30;3.33;;;13.10;99.90;;;;;;5000451;28;20600;-84
2021/11/19 12:58:06;;;;;;;10.80;3.72;;;13.20;99.90;;;;;;4987872;28;20046;-84
2021/11/19 13:00:37;;;;;;;7.85;3.88;;;13.20;99.90;;;;;;4988199;28;20049;-83
2021/11/19 13:03:15;;;;;;;;;;;13.20;99.90;;;;;;4990627;28;20140;-86
2021/11/19 13:06:24;;;;;;;10.13;4.57;;;13.20;99.90;;;;;;4995685;28;19929;-85
2021/11/19 13:09:00;;;;;;;6.85;3.85;;;13.20;99.90;;;;;;5008513;28;20054;-83
2021/11/19 13:11:59;;;;;;;8.55;3.83;;;13.30;99.90;;;;;;5027661;28;20049;-83
2021/11/19 13:14:31;;;;;;;6.68;3.28;;;13.20;99.90;;;;;;5023733;28;20042;-83
2021/11/19 13:17:02;;;;;;;6.38;3.28;;;13.20;99.90;;;;;;5025994;28;20054;-84
2021/11/19 13:19:30;;;;;;;8.98;4.22;;;13.20;99.90;;;;;;5005845;28;20053;-85
2021/11/19 13:22:08;;;;;;;10.10;4.00;;;13.20;99.90;;;;;;5024884;28;20045;-84
2021/11/19 13:25:32;;;;;;;8.80;3.50;;;13.20;99.90;;;;;;5007393;28;20406;-83
2021/11/19 13:28:01;;;;;;;7.45;3.88;;;13.10;99.90;;;;;;5021779;28;20061;-85
2021/11/19 13:30:33;;;;;;;7.93;3.92;;;13.10;99.90;;;;;;5010567;28;20061;-85
2021/11/19 13:33:14;;;;;;;6.68;3.45;;;13.10;99.90;;;;;;4999763;28;20065;-85
2021/11/19 13:36:29;;;;;;;4.80;2.75;;;13.10;99.90;;;;;;5008888;28;20041;-87
2021/11/19 13:39:29;;;;;;;10.18;3.78;;;13.10;99.90;;;;;;5026001;28;20049;-88